Time;durP1;ratioP1;P1;durP2;ratioP2;P2;SDS_P1;SDS_P2;PMS_P1;PMS_P2;Temp;Humidity;BMP_temperature;BMP_pressure;BME280_temperature;BME280_humidity;BME280_pressure;Samples;Min_cycle;Max_cycle;Signal;HPM_P1;HPM_P2
2023/01/10 00:00:30;;;;;;;98.30;34.60;;;;;;;4.78;100.00;98965.69;5081072;22;20249;-69
2023/01/10 00:02:57;;;;;;;98.23;34.87;;;;;;;4.72;100.00;98971.50;5071935;22;20425;-69
2023/01/10 00:05:24;;;;;;;101.00;35.73;;;;;;;4.71;100.00;98964.59;5128260;22;20320;-69
2023/01/10 00:07:50;;;;;;;113.77;34.83;;;;;;;4.72;100.00;98971.50;5102315;22;21355;-69
2023/01/10 00:10:17;;;;;;;102.10;35.90;;;;;;;4.71;100.00;98961.97;5120836;22;20317;-68
2023/01/10 00:15:34;;;;;;;107.23;35.63;;;;;;;4.71;100.00;98969.88;5104399;22;20675;-71
2023/01/10 00:18:00;;;;;;;109.73;36.33;;;;;;;4.67;100.00;98971.94;5098163;22;20201;-67
2023/01/10 00:20:27;;;;;;;114.30;37.43;;;;;;;4.64;100.00;98986.25;5109715;22;20202;-70
2023/01/10 00:22:54;;;;;;;111.30;36.67;;;;;;;4.72;100.00;98982.06;5113321;22;21625;-69
2023/01/10 00:25:20;;;;;;;112.23;37.10;;;;;;;4.70;100.00;98995.34;5107203;22;21729;-69
2023/01/10 00:30:34;;;;;;;117.20;36.70;;;;;;;4.69;100.00;99004.25;5108507;22;20687;-69
2023/01/10 00:33:00;;;;;;;118.10;37.37;;;;;;;4.62;100.00;99013.69;5112582;22;20261;-68
2023/01/10 00:35:27;;;;;;;112.60;35.83;;;;;;;4.65;100.00;99010.78;5132365;22;20253;-68
2023/01/10 00:38:00;;;;;;;117.60;36.20;;;;;;;4.66;100.00;99009.81;5104233;22;20210;-70
2023/01/10 00:40:26;;;;;;;103.97;33.60;;;;;;;4.65;100.00;99008.97;5106617;22;20209;-68
2023/01/10 00:45:38;;;;;;;112.03;36.67;;;;;;;4.70;100.00;99023.53;5123345;22;20236;-67
2023/01/10 00:48:04;;;;;;;111.10;36.73;;;;;;;4.66;100.00;99030.91;5125059;23;20393;-69
2023/01/10 00:50:31;;;;;;;114.83;36.13;;;;;;;4.68;100.00;99025.47;5102599;22;20351;-71
2023/01/10 00:52:58;;;;;;;123.50;37.43;;;;;;;4.69;100.00;99027.97;5109887;22;20218;-68
2023/01/10 00:55:24;;;;;;;117.83;37.00;;;;;;;4.71;100.00;99033.09;5098042;22;20202;-67
2023/01/10 00:57:51;;;;;;;122.17;37.70;;;;;;;4.72;100.00;99032.94;5141256;22;20262;-68
2023/01/10 01:00:17;;;;;;;122.30;37.33;;;;;;;4.67;100.00;99037.00;5105564;22;20212;-70
2023/01/10 01:02:44;;;;;;;120.67;37.50;;;;;;;4.73;100.00;99044.31;5126453;22;20201;-69
2023/01/10 01:05:11;;;;;;;122.10;37.43;;;;;;;4.69;100.00;99046.41;5123705;23;22732;-68
2023/01/10 01:07:37;;;;;;;116.07;36.10;;;;;;;4.64;100.00;99044.19;5119394;22;20224;-68
2023/01/10 01:12:49;;;;;;;122.17;36.27;;;;;;;4.73;100.00;99046.94;5113319;22;22734;-69
2023/01/10 01:15:16;;;;;;;123.20;37.10;;;;;;;4.68;100.00;99050.00;5110691;22;21249;-69
2023/01/10 01:17:42;;;;;;;124.93;36.77;;;;;;;4.77;100.00;99061.50;5112921;22;20217;-70
2023/01/10 01:20:09;;;;;;;131.97;38.77;;;;;;;4.65;100.00;99056.38;5108370;22;20606;-69
2023/01/10 01:22:36;;;;;;;123.60;39.77;;;;;;;4.68;100.00;99057.91;5071674;22;20204;-70
2023/01/10 01:25:04;;;;;;;123.50;38.23;;;;;;;4.65;100.00;99053.75;5109498;22;23262;-69
2023/01/10 01:27:30;;;;;;;123.03;39.10;;;;;;;4.62;100.00;99061.94;5099890;22;20202;-68
2023/01/10 01:29:57;;;;;;;137.47;39.33;;;;;;;4.65;100.00;99063.47;5098199;22;21092;-69
2023/01/10 01:32:24;;;;;;;129.70;40.57;;;;;;;4.66;100.00;99065.16;5102887;22;21781;-69
2023/01/10 01:34:50;;;;;;;120.53;38.10;;;;;;;4.68;100.00;99070.25;5113264;22;20206;-69
2023/01/10 01:37:18;;;;;;;134.63;40.10;;;;;;;4.69;100.00;99077.22;5100201;22;20388;-68
2023/01/10 01:39:48;;;;;;;131.27;39.53;;;;;;;4.69;100.00;99077.22;5120543;22;20212;-70
2023/01/10 01:42:26;;;;;;;130.57;38.23;;;;;;;4.67;100.00;99079.97;5112401;22;22129;-71
2023/01/10 01:45:08;;;;;;;130.57;40.07;;;;;;;4.69;100.00;99077.22;5114578;22;20205;-69
2023/01/10 01:47:47;;;;;;;126.63;39.57;;;;;;;4.69;100.00;99078.03;5101608;22;22225;-71
2023/01/10 01:50:22;;;;;;;127.47;39.90;;;;;;;4.73;100.00;99089.09;5110044;22;20909;-69
2023/01/10 01:52:52;;;;;;;129.43;40.33;;;;;;;4.75;100.00;99089.78;5083948;22;20485;-69
2023/01/10 01:55:19;;;;;;;130.70;39.67;;;;;;;4.77;100.00;99086.03;5102061;22;20272;-69
2023/01/10 01:57:46;;;;;;;138.23;41.60;;;;;;;4.75;100.00;99087.16;5107771;22;20254;-70
2023/01/10 02:00:13;;;;;;;131.23;42.70;;;;;;;4.82;100.00;99088.25;5101037;22;20210;-68
2023/01/10 02:02:45;;;;;;;130.97;40.40;;;;;;;4.79;100.00;99088.56;5086687;23;20263;-69
2023/01/10 02:05:28;;;;;;;129.10;39.53;;;;;;;4.80;100.00;99090.19;5088681;22;20602;-67
2023/01/10 02:07:56;;;;;;;129.40;41.40;;;;;;;4.72;100.00;99093.56;5099803;22;22832;-69
2023/01/10 02:10:25;;;;;;;133.53;39.63;;;;;;;4.73;100.00;99092.59;5105922;22;20206;-68
2023/01/10 02:12:53;;;;;;;135.30;40.17;;;;;;;4.81;100.00;99102.41;5101196;22;20916;-68
2023/01/10 02:15:20;;;;;;;139.57;40.63;;;;;;;4.74;100.00;99106.59;5120205;22;21203;-69
2023/01/10 02:17:48;;;;;;;130.17;41.73;;;;;;;4.70;100.00;99099.94;5115312;22;21705;-68
2023/01/10 02:20:15;;;;;;;131.93;39.83;;;;;;;4.76;100.00;99115.19;5119426;22;20336;-68
2023/01/10 02:23:03;;;;;;;140.77;40.87;;;;;;;4.75;100.00;99113.50;5093078;22;20246;-68
2023/01/10 02:26:04;;;;;;;124.43;39.67;;;;;;;4.76;100.00;99109.94;5103386;22;20629;-68
2023/01/10 02:28:36;;;;;;;128.20;39.73;;;;;;;4.79;100.00;99123.63;5130691;22;21048;-68
2023/01/10 02:31:37;;;;;;;142.27;41.53;;;;;;;4.82;100.00;99117.25;5111422;22;22960;-68
2023/01/10 02:34:51;;;;;;;138.37;41.77;;;;;;;4.84;100.00;99118.78;5126111;22;20202;-69
2023/01/10 02:37:20;;;;;;;131.23;42.57;;;;;;;4.86;100.00;99118.63;5088093;22;20206;-67
2023/01/10 02:39:53;;;;;;;135.70;42.57;;;;;;;4.80;100.00;99117.41;5107584;22;21587;-68
2023/01/10 02:42:41;;;;;;;132.83;42.10;;;;;;;4.70;100.00;99123.66;5114990;22;20218;-68
2023/01/10 02:45:12;;;;;;;144.17;43.93;;;;;;;4.67;100.00;99130.03;5110993;22;20202;-68
2023/01/10 02:47:40;;;;;;;137.13;42.10;;;;;;;4.69;100.00;99129.91;5131247;22;20570;-68
2023/01/10 02:50:35;;;;;;;130.13;41.53;;;;;;;4.65;100.00;99124.06;5084976;23;20210;-68
2023/01/10 02:53:05;;;;;;;131.33;41.47;;;;;;;4.67;100.00;99127.41;5098350;22;20632;-68
2023/01/10 02:55:57;;;;;;;130.30;41.33;;;;;;;4.65;100.00;99114.34;5088099;22;21266;-67
2023/01/10 02:59:05;;;;;;;139.53;42.13;;;;;;;4.76;100.00;99131.00;5073963;22;20382;-69
2023/01/10 03:01:50;;;;;;;128.93;40.77;;;;;;;4.63;100.00;99126.84;5107107;22;23511;-69
2023/01/10 03:04:25;;;;;;;122.80;39.33;;;;;;;4.71;100.00;99135.88;5115615;22;20206;-68
2023/01/10 03:07:01;;;;;;;128.47;40.03;;;;;;;4.71;100.00;99133.25;5118188;23;21144;-68
2023/01/10 03:09:34;;;;;;;121.53;40.33;;;;;;;4.68;100.00;99136.13;5118638;22;23020;-68
2023/01/10 03:12:17;;;;;;;128.07;39.90;;;;;;;4.71;100.00;99139.34;5088307;22;20210;-69
2023/01/10 03:14:46;;;;;;;116.03;38.03;;;;;;;4.75;100.00;99131.97;5086737;22;20213;-69
2023/01/10 03:17:14;;;;;;;120.03;39.73;;;;;;;4.77;100.00;99145.84;5089334;22;22901;-71
2023/01/10 03:19:48;;;;;;;121.20;39.17;;;;;;;4.73;100.00;99142.66;5126337;22;20210;-68
2023/01/10 03:22:16;;;;;;;116.30;36.93;;;;;;;4.70;100.00;99137.66;5093831;22;21511;-68
2023/01/10 03:24:46;;;;;;;109.27;37.23;;;;;;;4.78;100.00;99136.97;5083514;22;20282;-69
2023/01/10 03:27:23;;;;;;;129.30;38.67;;;;;;;4.73;100.00;99142.66;5087962;22;21800;-69
2023/01/10 03:29:49;;;;;;;116.10;38.20;;;;;;;4.71;100.00;99149.03;5091645;22;20352;-70
2023/01/10 03:32:20;;;;;;;122.37;39.13;;;;;;;4.71;100.00;99143.78;5124526;22;20206;-70
2023/01/10 03:34:46;;;;;;;116.90;39.53;;;;;;;4.70;100.00;99147.38;5088089;22;22977;-69
2023/01/10 03:37:21;;;;;;;116.83;38.33;;;;;;;4.67;100.00;99145.84;5140917;22;20595;-71
2023/01/10 03:40:14;;;;;;;122.43;39.00;;;;;;;4.68;100.00;99150.13;5106878;22;25075;-69
2023/01/10 03:45:43;;;;;;;119.20;38.10;;;;;;;4.71;100.00;99159.59;5148341;22;20307;-69
2023/01/10 03:48:11;;;;;;;114.83;38.87;;;;;;;4.76;100.00;99162.63;5121385;22;24867;-71
2023/01/10 03:50:39;;;;;;;124.37;38.33;;;;;;;4.73;100.00;99162.88;5123587;22;20204;-69
2023/01/10 03:53:05;;;;;;;136.63;40.87;;;;;;;4.76;100.00;99165.25;5108658;23;20205;-71
2023/01/10 03:55:33;;;;;;;125.70;39.50;;;;;;;4.74;100.00;99173.28;5097388;23;20389;-68
2023/01/10 03:58:00;;;;;;;130.00;41.27;;;;;;;4.75;100.00;99166.22;5103378;23;20607;-69
2023/01/10 04:00:27;;;;;;;135.87;39.40;;;;;;;4.77;100.00;99180.09;5073642;23;20701;-70
2023/01/10 04:02:54;;;;;;;130.70;38.60;;;;;;;4.76;100.00;99178.44;5099755;23;20203;-68
2023/01/10 04:05:21;;;;;;;126.13;39.77;;;;;;;4.74;100.00;99180.38;5103465;23;20206;-69
2023/01/10 04:07:48;;;;;;;123.27;38.03;;;;;;;4.80;100.00;99185.94;5099183;23;20207;-69
2023/01/10 04:10:14;;;;;;;117.30;36.90;;;;;;;4.79;100.00;99189.53;5106999;23;20199;-70
2023/01/10 04:12:41;;;;;;;123.20;38.37;;;;;;;4.78;100.00;99192.31;5090508;23;22876;-69
2023/01/10 04:15:08;;;;;;;129.03;39.33;;;;;;;4.72;100.00;99203.41;5099705;23;20355;-69
2023/01/10 04:17:35;;;;;;;110.60;36.33;;;;;;;4.83;100.00;99205.91;5089095;23;25783;-70
2023/01/10 04:20:01;;;;;;;112.60;37.77;;;;;;;4.80;100.00;99212.28;5106501;23;20273;-70
2023/01/10 04:22:28;;;;;;;120.63;37.83;;;;;;;4.82;100.00;99212.13;5102974;23;20211;-71
2023/01/10 04:24:54;;;;;;;111.30;38.80;;;;;;;4.78;100.00;99219.50;5123490;23;20330;-70
2023/01/10 04:27:21;;;;;;;107.93;37.63;;;;;;;4.79;100.00;99215.88;5093616;23;20265;-69
2023/01/10 04:29:47;;;;;;;112.57;38.10;;;;;;;4.79;100.00;99220.31;5088161;23;20198;-68
2023/01/10 04:32:14;;;;;;;110.60;37.67;;;;;;;4.80;100.00;99228.09;5109380;23;22027;-70
2023/01/10 04:34:40;;;;;;;106.27;37.17;;;;;;;4.78;100.00;99234.47;5108930;23;20323;-69
2023/01/10 04:37:07;;;;;;;111.40;36.47;;;;;;;4.78;100.00;99242.38;5116908;23;20206;-70
2023/01/10 04:39:33;;;;;;;112.00;37.93;;;;;;;4.78;100.00;99237.13;5093073;23;22151;-70
2023/01/10 04:42:00;;;;;;;110.13;37.40;;;;;;;4.77;100.00;99238.91;5111258;23;20959;-69
2023/01/10 04:44:26;;;;;;;114.03;37.53;;;;;;;4.74;100.00;99244.44;5085590;23;21317;-70
2023/01/10 04:46:53;;;;;;;111.90;37.27;;;;;;;4.68;100.00;99242.34;5084432;23;20234;-69
2023/01/10 04:49:19;;;;;;;107.53;38.07;;;;;;;4.71;100.00;99255.28;5107127;23;20236;-68
2023/01/10 04:51:46;;;;;;;114.37;37.60;;;;;;;4.69;100.00;99259.03;5070556;23;20211;-72
2023/01/10 04:54:13;;;;;;;107.90;36.97;;;;;;;4.69;100.00;99267.75;5085018;23;20210;-72
2023/01/10 04:56:39;;;;;;;100.77;36.27;;;;;;;4.68;100.00;99270.50;5092727;23;22776;-68
2023/01/10 04:59:06;;;;;;;111.40;38.40;;;;;;;4.69;100.00;99272.19;5096647;23;20201;-71
2023/01/10 05:01:34;;;;;;;108.83;35.43;;;;;;;4.67;100.00;99274.94;5097169;23;22441;-72
2023/01/10 05:04:02;;;;;;;107.83;36.97;;;;;;;4.69;100.00;99282.72;5103657;23;21173;-70
2023/01/10 05:06:28;;;;;;;104.73;36.47;;;;;;;4.70;100.00;99285.22;5088765;23;20371;-69
2023/01/10 05:08:55;;;;;;;110.23;37.80;;;;;;;4.74;100.00;99286.63;5104544;23;20338;-69
2023/01/10 05:11:21;;;;;;;97.57;36.57;;;;;;;4.79;100.00;99291.47;5095421;23;20215;-70
2023/01/10 05:13:48;;;;;;;98.87;35.87;;;;;;;4.77;100.00;99288.13;5107770;23;21585;-69
2023/01/10 05:16:16;;;;;;;105.13;37.00;;;;;;;4.75;100.00;99303.25;5099806;23;21913;-69
2023/01/10 05:18:42;;;;;;;102.33;36.30;;;;;;;4.71;100.00;99302.72;5099425;23;20210;-69
2023/01/10 05:21:10;;;;;;;100.50;35.97;;;;;;;4.74;100.00;99309.50;5075723;23;20209;-69
2023/01/10 05:23:37;;;;;;;107.03;37.17;;;;;;;4.73;100.00;99306.03;5090196;23;20210;-70
2023/01/10 05:26:15;;;;;;;94.47;35.83;;;;;;;4.71;100.00;99313.25;5083606;23;20378;-69
2023/01/10 05:28:42;;;;;;;99.50;36.73;;;;;;;4.69;100.00;99312.53;5074103;23;21225;-69
2023/01/10 05:31:11;;;;;;;105.97;36.70;;;;;;;4.72;100.00;99324.63;5102379;23;21240;-69
2023/01/10 05:33:38;;;;;;;90.83;35.13;;;;;;;4.74;100.00;99333.22;5112293;23;20262;-69
2023/01/10 05:36:05;;;;;;;104.00;36.50;;;;;;;4.77;100.00;99338.22;5089859;23;20695;-69
2023/01/10 05:38:32;;;;;;;106.37;36.47;;;;;;;4.80;100.00;99343.22;5064824;23;20203;-68
2023/01/10 05:40:59;;;;;;;93.73;35.30;;;;;;;4.84;100.00;99349.88;5087926;23;20932;-68
2023/01/10 05:43:26;;;;;;;103.87;35.73;;;;;;;4.85;100.00;99351.56;5098354;23;22385;-69
2023/01/10 05:45:53;;;;;;;99.20;36.30;;;;;;;4.85;100.00;99356.84;5123380;23;23576;-71
2023/01/10 05:48:19;;;;;;;100.00;34.67;;;;;;;4.82;100.00;99368.50;5094057;23;21734;-69
2023/01/10 05:50:48;;;;;;;98.40;36.03;;;;;;;4.86;100.00;99374.31;5082102;23;20642;-69
2023/01/10 05:53:15;;;;;;;98.40;36.20;;;;;;;4.81;100.00;99376.53;5098106;23;23653;-69
2023/01/10 05:55:41;;;;;;;106.93;37.57;;;;;;;4.81;100.00;99381.78;5088307;23;20332;-69
2023/01/10 05:58:10;;;;;;;104.07;37.30;;;;;;;4.81;100.00;99384.44;5084147;23;20266;-71
2023/01/10 06:00:38;;;;;;;103.20;36.17;;;;;;;4.80;100.00;99390.66;5100365;22;20266;-69
2023/01/10 06:03:05;;;;;;;96.27;35.63;;;;;;;4.82;100.00;99389.56;5094833;23;20203;-68
2023/01/10 06:05:32;;;;;;;105.37;37.00;;;;;;;4.81;100.00;99393.16;5098383;22;20269;-70
2023/01/10 06:07:58;;;;;;;101.33;36.83;;;;;;;4.80;100.00;99406.47;5095957;22;20217;-69
2023/01/10 06:10:25;;;;;;;102.60;36.57;;;;;;;4.82;100.00;99409.81;5104246;22;20727;-71
2023/01/10 06:12:52;;;;;;;101.70;37.97;;;;;;;4.82;100.00;99409.81;5092795;22;21166;-70
2023/01/10 06:15:19;;;;;;;97.93;35.00;;;;;;;4.79;100.00;99413.53;5119489;22;20249;-71
2023/01/10 06:17:45;;;;;;;109.63;35.77;;;;;;;4.76;100.00;99415.63;5100730;23;20418;-68
2023/01/10 06:20:13;;;;;;;97.43;34.17;;;;;;;4.75;100.00;99417.44;5091864;23;20258;-75
2023/01/10 06:22:41;;;;;;;100.17;37.00;;;;;;;4.69;100.00;99419.75;5095184;22;20208;-70
2023/01/10 06:25:09;;;;;;;97.83;33.97;;;;;;;4.68;100.00;99421.53;5126210;22;21142;-68
2023/01/10 06:27:41;;;;;;;103.90;35.40;;;;;;;4.68;100.00;99433.88;5116669;22;20215;-70
2023/01/10 06:30:09;;;;;;;110.90;36.97;;;;;;;4.68;100.00;99436.53;5148496;22;20199;-70
2023/01/10 06:32:36;;;;;;;95.43;35.70;;;;;;;4.72;100.00;99441.41;5101138;22;20242;-69
2023/01/10 06:35:03;;;;;;;102.77;36.67;;;;;;;4.64;100.00;99443.88;5099892;23;20209;-69
2023/01/10 06:37:30;;;;;;;94.27;34.90;;;;;;;4.64;100.00;99449.97;5092987;22;21967;-70
2023/01/10 06:39:56;;;;;;;112.70;38.03;;;;;;;4.65;100.00;99462.16;5087314;22;22556;-71
2023/01/10 06:42:23;;;;;;;91.63;33.57;;;;;;;4.65;100.00;99467.44;5098720;22;22622;-69
2023/01/10 06:44:50;;;;;;;97.97;35.53;;;;;;;4.67;100.00;99469.94;5094663;22;21106;-70
2023/01/10 06:47:16;;;;;;;105.17;35.87;;;;;;;4.59;100.00;99470.59;5113845;23;20375;-72
2023/01/10 06:49:43;;;;;;;99.57;34.50;;;;;;;4.60;100.00;99474.91;5120117;22;23135;-73
2023/01/10 06:52:10;;;;;;;93.03;34.40;;;;;;;4.62;100.00;99475.59;5096174;23;21382;-69
2023/01/10 06:54:36;;;;;;;93.13;33.83;;;;;;;4.68;100.00;99478.69;5098581;23;20211;-70
2023/01/10 06:57:03;;;;;;;92.57;33.37;;;;;;;4.70;100.00;99484.66;5101095;23;20373;-72
2023/01/10 06:59:30;;;;;;;97.60;34.30;;;;;;;4.68;100.00;99492.69;5122982;23;20217;-70
2023/01/10 07:01:56;;;;;;;96.40;34.23;;;;;;;4.63;100.00;99485.16;5106121;23;20215;-72
2023/01/10 07:04:23;;;;;;;90.50;34.90;;;;;;;4.61;100.00;99484.50;5099624;23;20442;-70
2023/01/10 07:06:49;;;;;;;89.57;33.20;;;;;;;4.64;100.00;99480.75;5112982;23;20272;-70
2023/01/10 07:09:16;;;;;;;90.07;33.27;;;;;;;4.61;100.00;99487.13;5081312;23;20253;-72
2023/01/10 07:11:43;;;;;;;91.77;34.07;;;;;;;4.60;100.00;99492.53;5108003;23;21806;-70
2023/01/10 07:14:09;;;;;;;83.10;32.33;;;;;;;4.62;100.00;99496.69;5123572;23;21285;-71
2023/01/10 07:16:36;;;;;;;95.67;34.07;;;;;;;4.63;100.00;99497.53;5131051;22;20245;-71
2023/01/10 07:19:02;;;;;;;91.07;31.60;;;;;;;4.60;100.00;99501.25;5101518;23;20377;-71
2023/01/10 07:21:29;;;;;;;81.23;31.47;;;;;;;4.62;100.00;99503.75;5118339;23;20291;-73
2023/01/10 07:23:55;;;;;;;86.50;31.47;;;;;;;4.57;100.00;99504.16;5128764;23;20612;-73
2023/01/10 07:26:23;;;;;;;82.67;30.87;;;;;;;4.54;100.00;99507.06;5116829;23;20209;-70
2023/01/10 07:28:50;;;;;;;84.43;31.37;;;;;;;4.49;100.00;99503.94;5105048;23;20236;-70
2023/01/10 07:31:21;;;;;;;87.37;32.90;;;;;;;4.51;100.00;99503.84;5132546;23;20210;-68
2023/01/10 07:33:49;;;;;;;82.93;31.97;;;;;;;4.50;100.00;99513.53;5072249;23;20348;-74
2023/01/10 07:36:16;;;;;;;82.13;31.17;;;;;;;4.48;100.00;99517.28;5110162;23;20536;-74
2023/01/10 07:38:43;;;;;;;79.90;31.00;;;;;;;4.47;100.00;99511.13;5111079;23;20254;-72
2023/01/10 07:41:09;;;;;;;81.83;30.77;;;;;;;4.50;100.00;99520.63;5113694;23;20203;-74
2023/01/10 07:43:36;;;;;;;73.17;30.33;;;;;;;4.50;100.00;99515.34;5130593;23;21007;-72
2023/01/10 07:46:10;;;;;;;79.63;30.47;;;;;;;4.51;100.00;99523.09;5101825;23;20210;-71
2023/01/10 07:48:40;;;;;;;74.37;29.20;;;;;;;4.57;100.00;99521.78;5106360;23;20205;-69
2023/01/10 07:51:06;;;;;;;73.63;28.37;;;;;;;4.53;100.00;99525.63;5079178;23;20207;-70
2023/01/10 07:53:33;;;;;;;76.33;28.57;;;;;;;4.56;100.00;99527.97;5115394;23;20401;-68
2023/01/10 07:56:01;;;;;;;71.60;29.13;;;;;;;4.50;100.00;99526.72;5090657;23;20381;-69
2023/01/10 07:58:28;;;;;;;78.03;29.70;;;;;;;4.49;100.00;99522.38;5089300;23;20206;-69
2023/01/10 08:00:58;;;;;;;74.03;28.07;;;;;;;4.54;100.00;99532.53;5103438;23;20375;-68
2023/01/10 08:03:25;;;;;;;65.97;27.23;;;;;;;4.50;100.00;99529.34;5082868;23;20336;-67
2023/01/10 08:06:06;;;;;;;70.87;28.17;;;;;;;4.51;100.00;99544.19;5111161;23;20280;-66
2023/01/10 08:08:33;;;;;;;72.73;28.73;;;;;;;4.51;100.00;99549.44;5106829;23;20208;-68
2023/01/10 08:11:01;;;;;;;74.40;28.70;;;;;;;4.51;100.00;99549.44;5100851;23;20206;-66
2023/01/10 08:13:28;;;;;;;69.10;26.60;;;;;;;4.51;100.00;99551.25;5091222;23;20582;-68
2023/01/10 08:15:55;;;;;;;71.57;26.10;;;;;;;4.48;100.00;99551.50;5119500;23;20202;-68
2023/01/10 08:18:23;;;;;;;68.33;26.83;;;;;;;4.44;100.00;99559.66;5111976;23;21572;-69
2023/01/10 08:20:52;;;;;;;65.10;26.57;;;;;;;4.46;100.00;99561.34;5117079;23;25554;-70
2023/01/10 08:23:19;;;;;;;73.13;27.63;;;;;;;4.42;100.00;99568.66;5103623;23;20209;-68
2023/01/10 08:25:46;;;;;;;64.60;27.17;;;;;;;4.47;100.00;99563.81;5137028;23;20871;-71
2023/01/10 08:28:13;;;;;;;70.93;26.17;;;;;;;4.47;100.00;99566.47;5102444;22;22293;-68
2023/01/10 08:30:40;;;;;;;64.90;26.57;;;;;;;4.45;100.00;99571.06;5089818;23;20297;-68
2023/01/10 08:33:07;;;;;;;68.60;27.60;;;;;;;4.43;100.00;99570.34;5115560;23;23223;-68
2023/01/10 08:35:41;;;;;;;61.47;25.63;;;;;;;4.43;100.00;99575.59;5173265;22;20207;-69
2023/01/10 08:38:09;;;;;;;70.13;26.63;;;;;;;4.49;100.00;99580.34;5094107;23;20273;-73
2023/01/10 08:40:36;;;;;;;60.40;26.80;;;;;;;4.47;100.00;99579.63;5097288;23;20247;-69
2023/01/10 08:43:09;;;;;;;66.60;26.87;;;;;;;4.51;100.00;99585.50;5084011;23;21622;-67
2023/01/10 08:45:36;;;;;;;63.50;26.17;;;;;;;4.53;100.00;99588.84;5066131;23;20640;-68
2023/01/10 08:48:03;;;;;;;69.00;25.17;;;;;;;4.53;100.00;99589.69;5070044;23;20221;-69
2023/01/10 08:50:30;;;;;;;67.77;25.27;;;;;;;4.52;100.00;99595.91;5119526;23;20240;-68
2023/01/10 08:52:58;;;;;;;62.80;24.97;;;;;;;4.45;100.00;99597.38;5111422;23;20209;-71
2023/01/10 08:55:25;;;;;;;67.50;25.50;;;;;;;4.44;100.00;99601.81;5107962;23;20207;-69
2023/01/10 08:57:52;;;;;;;59.17;25.40;;;;;;;4.53;100.00;99608.13;5102519;23;20554;-70
2023/01/10 09:00:22;;;;;;;61.57;24.13;;;;;;;4.49;100.00;99617.22;5077966;23;20204;-69
2023/01/10 09:02:48;;;;;;;64.10;25.43;;;;;;;4.52;100.00;99624.03;5105285;23;20205;-69
2023/01/10 09:05:15;;;;;;;61.27;24.37;;;;;;;4.53;100.00;99626.56;5093558;23;20270;-71
2023/01/10 09:07:59;;;;;;;58.43;23.27;;;;;;;4.43;100.00;99625.66;5090617;23;20276;-70
2023/01/10 09:10:27;;;;;;;56.73;23.27;;;;;;;4.49;100.00;99619.88;5115165;23;20213;-70
2023/01/10 09:12:53;;;;;;;62.87;23.20;;;;;;;4.56;100.00;99623.66;5125691;23;20206;-69
2023/01/10 09:15:21;;;;;;;54.67;22.70;;;;;;;4.51;100.00;99625.84;5112744;23;20214;-68
2023/01/10 09:17:50;;;;;;;53.87;23.23;;;;;;;4.50;100.00;99624.19;5088926;23;21271;-69
2023/01/10 09:20:17;;;;;;;54.53;22.90;;;;;;;4.45;100.00;99634.28;5121100;23;20206;-70
2023/01/10 09:22:45;;;;;;;61.00;24.80;;;;;;;4.46;100.00;99630.66;5105947;23;21245;-71
2023/01/10 09:25:12;;;;;;;59.07;23.50;;;;;;;4.48;100.00;99636.66;5115500;23;20282;-71
2023/01/10 09:27:38;;;;;;;53.37;22.73;;;;;;;4.50;100.00;99637.34;5139150;23;20207;-69
2023/01/10 09:30:05;;;;;;;54.63;23.23;;;;;;;4.53;100.00;99641.53;5132009;23;20215;-69
2023/01/10 09:32:32;;;;;;;58.73;23.80;;;;;;;4.48;100.00;99641.09;5120105;23;20229;-72
2023/01/10 09:34:58;;;;;;;51.70;21.97;;;;;;;4.51;100.00;99633.75;5122731;23;20340;-71
2023/01/10 09:37:25;;;;;;;58.33;23.40;;;;;;;4.58;100.00;99640.19;5120513;23;20210;-71
2023/01/10 09:39:51;;;;;;;61.00;23.77;;;;;;;4.54;100.00;99633.53;5112985;23;20832;-68
2023/01/10 09:42:27;;;;;;;51.07;22.80;;;;;;;4.67;100.00;99638.59;5108687;23;20207;-69
2023/01/10 09:45:18;;;;;;;53.67;22.53;;;;;;;4.63;100.00;99638.00;5122698;23;21814;-71
2023/01/10 09:47:50;;;;;;;53.20;23.23;;;;;;;4.61;100.00;99642.59;5097568;23;25930;-72
2023/01/10 09:50:34;;;;;;;52.33;22.33;;;;;;;4.70;100.00;99638.34;5093649;22;20267;-70
2023/01/10 09:53:08;;;;;;;56.73;22.90;;;;;;;4.74;100.00;99639.75;5107686;22;21634;-70
2023/01/10 09:55:35;;;;;;;51.70;22.93;;;;;;;4.82;100.00;99631.22;5103859;22;20992;-68
2023/01/10 09:58:16;;;;;;;58.53;23.97;;;;;;;4.83;100.00;99636.38;5096634;22;20268;-70
2023/01/10 10:00:48;;;;;;;52.83;22.40;;;;;;;4.90;100.00;99636.69;5124326;22;21646;-71
2023/01/10 10:03:31;;;;;;;53.40;22.07;;;;;;;4.89;100.00;99629.72;5111115;22;20532;-71
2023/01/10 10:05:59;;;;;;;49.37;21.97;;;;;;;4.89;100.00;99632.38;5101049;22;20944;-68
2023/01/10 10:08:41;;;;;;;51.57;22.23;;;;;;;5.00;100.00;99634.94;5126457;22;21049;-70
2023/01/10 10:11:25;;;;;;;52.27;21.93;;;;;;;5.04;100.00;99640.81;5108303;22;20277;-68
2023/01/10 10:14:23;;;;;;;58.23;22.40;;;;;;;5.03;100.00;99644.38;5111238;22;21374;-70
2023/01/10 10:17:05;;;;;;;52.17;21.53;;;;;;;4.97;100.00;99651.03;5098593;22;20245;-71
2023/01/10 10:19:44;;;;;;;49.33;21.40;;;;;;;4.92;100.00;99653.22;5105726;22;20207;-70
2023/01/10 10:22:16;;;;;;;51.07;22.23;;;;;;;4.96;100.00;99653.78;5135097;22;21585;-70
2023/01/10 10:25:08;;;;;;;58.50;22.97;;;;;;;4.96;100.00;99648.50;5121143;22;20201;-67
2023/01/10 10:27:40;;;;;;;52.50;21.53;;;;;;;5.04;100.00;99651.34;5121907;22;20257;-71
2023/01/10 10:30:18;;;;;;;49.80;21.73;;;;;;;4.96;100.00;99649.34;5086196;22;20773;-68
2023/01/10 10:33:04;;;;;;;56.77;21.63;;;;;;;5.01;100.00;99652.44;5097666;22;22699;-73
2023/01/10 10:35:43;;;;;;;48.60;20.77;;;;;;;5.00;100.00;99653.41;5113881;22;22249;-70
2023/01/10 10:38:35;;;;;;;51.93;20.77;;;;;;;5.01;100.00;99652.44;5118715;22;20203;-70
2023/01/10 10:41:02;;;;;;;50.97;21.33;;;;;;;5.14;100.00;99660.16;5151887;22;25507;-70
2023/01/10 10:43:34;;;;;;;51.10;20.67;;;;;;;5.06;100.00;99666.09;5121384;22;21148;-73
2023/01/10 10:46:04;;;;;;;53.23;20.97;;;;;;;5.15;100.00;99668.91;5101715;22;20203;-73
2023/01/10 10:48:35;;;;;;;50.47;22.33;;;;;;;5.24;100.00;99657.56;5109154;22;20243;-69
2023/01/10 10:51:20;;;;;;;49.70;21.10;;;;;;;5.30;100.00;99662.34;5097346;22;20204;-72
2023/01/10 10:53:47;;;;;;;51.60;19.77;;;;;;;5.32;100.00;99665.69;5109466;22;21185;-68
2023/01/10 10:56:17;;;;;;;50.97;20.60;;;;;;;5.27;100.00;99678.44;5095933;22;20214;-67
2023/01/10 10:58:47;;;;;;;53.03;21.63;;;;;;;5.20;100.00;99675.47;5080372;22;20198;-69
2023/01/10 11:01:15;;;;;;;48.70;19.87;;;;;;;5.22;100.00;99678.81;5090999;22;20252;-69
2023/01/10 11:03:46;;;;;;;51.13;20.77;;;;;;;5.19;100.00;99680.88;5108070;22;20368;-67
2023/01/10 11:06:14;;;;;;;50.80;20.20;;;;;;;5.20;100.00;99678.13;5106271;23;21667;-70
2023/01/10 11:08:43;;;;;;;52.23;20.23;;;;;;;5.12;100.00;99671.78;5110073;22;20215;-72
2023/01/10 11:11:24;;;;;;;48.53;20.60;;;;;;;5.03;100.00;99671.63;5086394;22;20214;-72
2023/01/10 11:13:55;;;;;;;51.90;21.63;;;;;;;5.13;100.00;99671.69;5106358;22;22531;-70
2023/01/10 11:16:32;;;;;;;47.50;19.67;;;;;;;5.08;100.00;99682.63;5124010;22;20206;-69
2023/01/10 11:19:26;;;;;;;48.83;21.00;;;;;;;5.12;100.00;99682.34;5127470;22;20208;-70
2023/01/10 11:21:58;;;;;;;49.80;20.60;;;;;;;5.22;100.00;99688.50;5114385;22;20236;-67
2023/01/10 11:24:30;;;;;;;50.87;20.30;;;;;;;5.16;100.00;99695.16;5120506;22;21560;-72
2023/01/10 11:26:59;;;;;;;51.33;20.93;;;;;;;5.13;100.00;99703.31;5113491;22;20198;-72
2023/01/10 11:29:36;;;;;;;55.77;20.60;;;;;;;5.10;100.00;99711.47;5115593;22;20299;-70
2023/01/10 11:32:13;;;;;;;46.57;20.17;;;;;;;5.10;100.00;99710.66;5096371;22;20201;-71
2023/01/10 11:35:01;;;;;;;49.30;21.60;;;;;;;5.07;100.00;99717.84;5120876;22;20215;-69
2023/01/10 11:37:31;;;;;;;51.17;21.53;;;;;;;5.05;100.00;99726.84;5123482;22;20236;-73
2023/01/10 11:40:24;;;;;;;50.63;20.50;;;;;;;5.07;100.00;99736.31;5125244;22;20212;-68
2023/01/10 11:42:55;;;;;;;50.73;20.63;;;;;;;4.95;100.00;99732.06;5126086;22;20213;-69